sensor_id;sensor_type;location;lat;lon;timestamp;pressure;altitude;pressure_sealevel;temperature;humidity
62508;BME280;48556;51.972;4.624;2022-12-29T00:02:20;99894.16;;;12.53;93.40
62508;BME280;48556;51.972;4.624;2022-12-29T00:04:45;99888.00;;;12.53;92.99
62508;BME280;48556;51.972;4.624;2022-12-29T00:07:11;99886.19;;;12.55;92.89
62508;BME280;48556;51.972;4.624;2022-12-29T00:09:37;99866.72;;;12.59;92.43
62508;BME280;48556;51.972;4.624;2022-12-29T00:12:04;99861.22;;;12.65;91.94
62508;BME280;48556;51.972;4.624;2022-12-29T00:14:30;99856.09;;;12.60;91.63
62508;BME280;48556;51.972;4.624;2022-12-29T00:17:15;99871.31;;;12.77;91.27
62508;BME280;48556;51.972;4.624;2022-12-29T00:19:40;99848.53;;;12.75;90.84
62508;BME280;48556;51.972;4.624;2022-12-29T00:22:25;99843.78;;;12.61;91.02
62508;BME280;48556;51.972;4.624;2022-12-29T00:25:12;99850.34;;;12.74;90.38
62508;BME280;48556;51.972;4.624;2022-12-29T00:27:57;99842.94;;;12.60;91.02
62508;BME280;48556;51.972;4.624;2022-12-29T00:30:41;99828.31;;;12.52;91.18
62508;BME280;48556;51.972;4.624;2022-12-29T00:33:29;99834.97;;;12.62;90.78
62508;BME280;48556;51.972;4.624;2022-12-29T00:36:37;99845.63;;;12.82;90.16
62508;BME280;48556;51.972;4.624;2022-12-29T00:39:12;99850.41;;;12.47;94.34
62508;BME280;48556;51.972;4.624;2022-12-29T00:42:03;99826.59;;;12.25;95.89
62508;BME280;48556;51.972;4.624;2022-12-29T00:44:47;99826.09;;;12.39;95.48
62508;BME280;48556;51.972;4.624;2022-12-29T00:47:12;99826.84;;;12.18;95.89
62508;BME280;48556;51.972;4.624;2022-12-29T00:49:38;99835.09;;;12.08;96.73
62508;BME280;48556;51.972;4.624;2022-12-29T00:52:06;99821.94;;;12.07;98.21
62508;BME280;48556;51.972;4.624;2022-12-29T00:54:35;99824.69;;;12.29;98.09
62508;BME280;48556;51.972;4.624;2022-12-29T00:57:02;99835.66;;;12.17;99.16
62508;BME280;48556;51.972;4.624;2022-12-29T00:59:28;99830.97;;;12.00;100.00
62508;BME280;48556;51.972;4.624;2022-12-29T01:01:55;99821.75;;;11.86;100.00
62508;BME280;48556;51.972;4.624;2022-12-29T01:04:22;99807.19;;;12.01;100.00
62508;BME280;48556;51.972;4.624;2022-12-29T01:06:49;99823.72;;;11.79;100.00
62508;BME280;48556;51.972;4.624;2022-12-29T01:09:16;99823.38;;;11.89;100.00
62508;BME280;48556;51.972;4.624;2022-12-29T01:12:00;99819.69;;;11.68;100.00
62508;BME280;48556;51.972;4.624;2022-12-29T01:14:26;99807.47;;;11.67;100.00
62508;BME280;48556;51.972;4.624;2022-12-29T01:16:53;99809.22;;;11.66;100.00
62508;BME280;48556;51.972;4.624;2022-12-29T01:19:19;99814.38;;;11.69;100.00
62508;BME280;48556;51.972;4.624;2022-12-29T01:21:46;99838.38;;;11.60;100.00
62508;BME280;48556;51.972;4.624;2022-12-29T01:24:14;99828.44;;;11.41;100.00
62508;BME280;48556;51.972;4.624;2022-12-29T01:26:40;99817.28;;;11.33;100.00
62508;BME280;48556;51.972;4.624;2022-12-29T01:29:05;99825.63;;;11.74;100.00
62508;BME280;48556;51.972;4.624;2022-12-29T01:31:31;99823.09;;;11.71;100.00
62508;BME280;48556;51.972;4.624;2022-12-29T01:33:56;99821.97;;;11.78;100.00
62508;BME280;48556;51.972;4.624;2022-12-29T01:36:22;99814.53;;;11.65;100.00
62508;BME280;48556;51.972;4.624;2022-12-29T01:38:49;99822.09;;;11.75;100.00
62508;BME280;48556;51.972;4.624;2022-12-29T01:41:15;99819.84;;;11.90;100.00
62508;BME280;48556;51.972;4.624;2022-12-29T01:43:48;99827.66;;;11.94;100.00
62508;BME280;48556;51.972;4.624;2022-12-29T01:49:16;99823.16;;;11.70;100.00
62508;BME280;48556;51.972;4.624;2022-12-29T01:51:52;99817.22;;;11.90;100.00
62508;BME280;48556;51.972;4.624;2022-12-29T01:54:32;99822.09;;;11.75;100.00
62508;BME280;48556;51.972;4.624;2022-12-29T01:57:03;99810.44;;;11.56;100.00
62508;BME280;48556;51.972;4.624;2022-12-29T01:59:34;99822.53;;;11.61;100.00
62508;BME280;48556;51.972;4.624;2022-12-29T02:02:02;99818.72;;;11.70;100.00
62508;BME280;48556;51.972;4.624;2022-12-29T02:04:32;99820.91;;;11.84;100.00
62508;BME280;48556;51.972;4.624;2022-12-29T02:07:03;99836.78;;;11.83;99.79
62508;BME280;48556;51.972;4.624;2022-12-29T02:09:30;99849.56;;;11.95;98.98
62508;BME280;48556;51.972;4.624;2022-12-29T02:11:58;99841.03;;;11.87;99.41
62508;BME280;48556;51.972;4.624;2022-12-29T02:14:24;99832.09;;;11.91;98.87
62508;BME280;48556;51.972;4.624;2022-12-29T02:22:52;99804.72;;;11.96;97.87
62508;BME280;48556;51.972;4.624;2022-12-29T02:30:57;99829.22;;;11.99;95.98
62508;BME280;48556;51.972;4.624;2022-12-29T02:36:21;99822.75;;;11.82;95.20
62508;BME280;48556;51.972;4.624;2022-12-29T02:41:44;99836.56;;;11.89;93.90
62508;BME280;48556;51.972;4.624;2022-12-29T02:44:26;99827.13;;;11.82;93.88
62508;BME280;48556;51.972;4.624;2022-12-29T02:49:38;99846.22;;;11.61;93.44
62508;BME280;48556;51.972;4.624;2022-12-29T02:52:11;99811.84;;;11.66;93.01
62508;BME280;48556;51.972;4.624;2022-12-29T02:54:41;99820.25;;;11.77;92.23
62508;BME280;48556;51.972;4.624;2022-12-29T02:57:36;99827.63;;;11.66;91.81
62508;BME280;48556;51.972;4.624;2022-12-29T03:00:04;99796.75;;;11.71;90.26
62508;BME280;48556;51.972;4.624;2022-12-29T03:05:58;99830.59;;;11.57;90.41
62508;BME280;48556;51.972;4.624;2022-12-29T03:08:55;99835.88;;;11.55;89.53
62508;BME280;48556;51.972;4.624;2022-12-29T03:11:33;99833.72;;;11.41;91.51
62508;BME280;48556;51.972;4.624;2022-12-29T03:14:28;99802.66;;;11.53;91.00
62508;BME280;48556;51.972;4.624;2022-12-29T03:20:07;99804.16;;;11.87;89.65
62508;BME280;48556;51.972;4.624;2022-12-29T03:22:38;99805.28;;;11.79;90.14
62508;BME280;48556;51.972;4.624;2022-12-29T03:27:42;99796.97;;;11.92;89.97
62508;BME280;48556;51.972;4.624;2022-12-29T03:30:11;99776.50;;;11.73;90.50
62508;BME280;48556;51.972;4.624;2022-12-29T03:32:55;99824.31;;;11.61;91.50
62508;BME280;48556;51.972;4.624;2022-12-29T03:35:27;99814.97;;;11.77;90.84
62508;BME280;48556;51.972;4.624;2022-12-29T03:38:21;99791.44;;;11.73;90.58
62508;BME280;48556;51.972;4.624;2022-12-29T03:40:53;99800.97;;;11.50;91.59
62508;BME280;48556;51.972;4.624;2022-12-29T03:43:22;99801.63;;;11.57;91.58
62508;BME280;48556;51.972;4.624;2022-12-29T03:45:48;99809.38;;;11.61;91.78
62508;BME280;48556;51.972;4.624;2022-12-29T03:48:13;99815.31;;;11.68;91.14
62508;BME280;48556;51.972;4.624;2022-12-29T03:50:39;99808.19;;;11.43;92.80
62508;BME280;48556;51.972;4.624;2022-12-29T03:53:05;99805.97;;;11.58;91.48
62508;BME280;48556;51.972;4.624;2022-12-29T03:55:30;99824.72;;;11.49;91.42
62508;BME280;48556;51.972;4.624;2022-12-29T03:57:56;99847.66;;;11.43;90.81
62508;BME280;48556;51.972;4.624;2022-12-29T04:00:22;99822.81;;;11.52;90.06
62508;BME280;48556;51.972;4.624;2022-12-29T04:02:47;99815.81;;;11.53;90.98
62508;BME280;48556;51.972;4.624;2022-12-29T04:05:13;99831.50;;;11.56;90.39
62508;BME280;48556;51.972;4.624;2022-12-29T04:07:38;99813.31;;;11.20;90.92
62508;BME280;48556;51.972;4.624;2022-12-29T04:10:04;99830.63;;;11.27;90.79
62508;BME280;48556;51.972;4.624;2022-12-29T04:12:29;99836.47;;;11.08;89.89
62508;BME280;48556;51.972;4.624;2022-12-29T04:14:55;99833.59;;;11.16;90.81
62508;BME280;48556;51.972;4.624;2022-12-29T04:17:20;99838.59;;;10.96;91.40
62508;BME280;48556;51.972;4.624;2022-12-29T04:19:46;99836.22;;;11.16;91.39
62508;BME280;48556;51.972;4.624;2022-12-29T04:22:12;99840.44;;;10.92;93.06
62508;BME280;48556;51.972;4.624;2022-12-29T04:24:38;99835.72;;;10.73;95.19
62508;BME280;48556;51.972;4.624;2022-12-29T04:27:03;99827.28;;;10.62;96.08
62508;BME280;48556;51.972;4.624;2022-12-29T04:29:29;99822.88;;;10.63;96.28
62508;BME280;48556;51.972;4.624;2022-12-29T04:31:54;99826.94;;;10.74;95.83
62508;BME280;48556;51.972;4.624;2022-12-29T04:34:20;99834.50;;;10.85;95.71
62508;BME280;48556;51.972;4.624;2022-12-29T04:36:45;99823.88;;;10.90;95.23
62508;BME280;48556;51.972;4.624;2022-12-29T04:39:11;99829.06;;;10.60;96.03
62508;BME280;48556;51.972;4.624;2022-12-29T04:41:36;99839.66;;;10.90;95.45
62508;BME280;48556;51.972;4.624;2022-12-29T04:44:02;99839.75;;;10.85;94.83
62508;BME280;48556;51.972;4.624;2022-12-29T04:46:27;99860.19;;;10.75;94.71
62508;BME280;48556;51.972;4.624;2022-12-29T04:48:53;99842.66;;;11.06;94.57
62508;BME280;48556;51.972;4.624;2022-12-29T04:51:19;99843.03;;;10.93;94.41
62508;BME280;48556;51.972;4.624;2022-12-29T04:53:44;99843.16;;;10.89;94.57
62508;BME280;48556;51.972;4.624;2022-12-29T04:56:10;99850.00;;;10.94;94.35
62508;BME280;48556;51.972;4.624;2022-12-29T04:58:36;99865.78;;;10.94;94.55
62508;BME280;48556;51.972;4.624;2022-12-29T05:01:01;99867.28;;;11.03;94.18
62508;BME280;48556;51.972;4.624;2022-12-29T05:03:27;99869.13;;;11.01;95.68
62508;BME280;48556;51.972;4.624;2022-12-29T05:05:54;99869.50;;;10.87;97.11
62508;BME280;48556;51.972;4.624;2022-12-29T05:08:20;99879.75;;;10.97;98.28
62508;BME280;48556;51.972;4.624;2022-12-29T05:10:46;99879.78;;;10.65;99.55
62508;BME280;48556;51.972;4.624;2022-12-29T05:13:12;99864.19;;;10.57;100.00
62508;BME280;48556;51.972;4.624;2022-12-29T05:15:37;99877.69;;;10.76;99.47
62508;BME280;48556;51.972;4.624;2022-12-29T05:18:03;99868.47;;;10.93;98.20
62508;BME280;48556;51.972;4.624;2022-12-29T05:20:28;99885.13;;;10.62;98.85
62508;BME280;48556;51.972;4.624;2022-12-29T05:22:54;99877.50;;;10.83;98.76
62508;BME280;48556;51.972;4.624;2022-12-29T05:25:20;99885.06;;;10.64;98.08
62508;BME280;48556;51.972;4.624;2022-12-29T05:27:45;99876.84;;;10.76;98.40
62508;BME280;48556;51.972;4.624;2022-12-29T05:30:15;99887.00;;;10.57;97.03
62508;BME280;48556;51.972;4.624;2022-12-29T05:32:40;99892.44;;;10.82;96.88
62508;BME280;48556;51.972;4.624;2022-12-29T05:35:06;99880.81;;;10.59;97.99
62508;BME280;48556;51.972;4.624;2022-12-29T05:37:32;99888.81;;;10.55;98.59
62508;BME280;48556;51.972;4.624;2022-12-29T05:39:58;99896.28;;;10.37;99.36
62508;BME280;48556;51.972;4.624;2022-12-29T05:42:24;99878.81;;;10.68;99.56
62508;BME280;48556;51.972;4.624;2022-12-29T05:44:50;99897.69;;;10.51;99.24
62508;BME280;48556;51.972;4.624;2022-12-29T05:47:19;99874.97;;;10.48;99.09
62508;BME280;48556;51.972;4.624;2022-12-29T05:49:44;99904.06;;;10.40;99.79
62508;BME280;48556;51.972;4.624;2022-12-29T05:52:10;99887.03;;;10.55;98.89
62508;BME280;48556;51.972;4.624;2022-12-29T05:54:35;99894.66;;;10.66;98.55
62508;BME280;48556;51.972;4.624;2022-12-29T05:57:01;99894.66;;;10.66;98.22
62508;BME280;48556;51.972;4.624;2022-12-29T05:59:26;99896.34;;;10.67;98.07
62508;BME280;48556;51.972;4.624;2022-12-29T06:01:52;99911.19;;;10.70;97.38
62508;BME280;48556;51.972;4.624;2022-12-29T06:04:17;99909.91;;;10.52;98.27
62508;BME280;48556;51.972;4.624;2022-12-29T06:06:43;99916.16;;;10.48;98.73
62508;BME280;48556;51.972;4.624;2022-12-29T06:09:10;99906.03;;;10.31;98.49
62508;BME280;48556;51.972;4.624;2022-12-29T06:11:36;99915.75;;;10.29;98.04
62508;BME280;48556;51.972;4.624;2022-12-29T06:14:01;99907.88;;;10.29;97.83
62508;BME280;48556;51.972;4.624;2022-12-29T06:16:27;99916.09;;;10.15;98.04
62508;BME280;48556;51.972;4.624;2022-12-29T06:18:52;99920.13;;;10.28;96.44
62508;BME280;48556;51.972;4.624;2022-12-29T06:21:18;99923.19;;;10.47;95.57
62508;BME280;48556;51.972;4.624;2022-12-29T06:23:44;99913.47;;;10.51;94.47
62508;BME280;48556;51.972;4.624;2022-12-29T06:26:09;99888.91;;;10.50;92.46
62508;BME280;48556;51.972;4.624;2022-12-29T06:28:35;99907.78;;;10.66;92.46
62508;BME280;48556;51.972;4.624;2022-12-29T06:31:00;99903.19;;;10.41;91.04
62508;BME280;48556;51.972;4.624;2022-12-29T06:33:28;99917.13;;;10.43;89.39
62508;BME280;48556;51.972;4.624;2022-12-29T06:35:54;99927.41;;;10.53;89.29
62508;BME280;48556;51.972;4.624;2022-12-29T06:38:20;99917.50;;;10.28;89.55
62508;BME280;48556;51.972;4.624;2022-12-29T06:40:46;99914.22;;;10.54;89.60
62508;BME280;48556;51.972;4.624;2022-12-29T06:43:12;99925.75;;;10.49;87.75
62508;BME280;48556;51.972;4.624;2022-12-29T06:45:39;99920.41;;;10.52;87.30
62508;BME280;48556;51.972;4.624;2022-12-29T06:48:06;99927.09;;;10.65;87.22
62508;BME280;48556;51.972;4.624;2022-12-29T06:50:32;99923.88;;;10.54;87.15
62508;BME280;48556;51.972;4.624;2022-12-29T06:52:57;99920.28;;;10.58;87.01
62508;BME280;48556;51.972;4.624;2022-12-29T06:55:23;99929.59;;;10.35;88.33
62508;BME280;48556;51.972;4.624;2022-12-29T06:57:48;99913.59;;;10.45;88.56
62508;BME280;48556;51.972;4.624;2022-12-29T07:00:16;99925.97;;;10.41;89.16
62508;BME280;48556;51.972;4.624;2022-12-29T07:02:42;99925.13;;;10.39;89.31
62508;BME280;48556;51.972;4.624;2022-12-29T07:05:08;99937.66;;;10.27;90.42
62508;BME280;48556;51.972;4.624;2022-12-29T07:07:34;99938.34;;;10.36;90.02
62508;BME280;48556;51.972;4.624;2022-12-29T07:10:00;99943.66;;;10.33;90.52
62508;BME280;48556;51.972;4.624;2022-12-29T07:12:25;99937.78;;;10.23;91.00
62508;BME280;48556;51.972;4.624;2022-12-29T07:14:51;99930.75;;;10.23;91.30
62508;BME280;48556;51.972;4.624;2022-12-29T07:17:16;99933.34;;;10.25;92.05
62508;BME280;48556;51.972;4.624;2022-12-29T07:19:42;99938.78;;;10.17;92.93
62508;BME280;48556;51.972;4.624;2022-12-29T07:22:09;99944.78;;;10.22;92.90
62508;BME280;48556;51.972;4.624;2022-12-29T07:24:34;99958.16;;;10.13;93.67
62508;BME280;48556;51.972;4.624;2022-12-29T07:27:00;99942.81;;;10.31;92.97
62508;BME280;48556;51.972;4.624;2022-12-29T07:29:25;99947.72;;;10.46;92.01
62508;BME280;48556;51.972;4.624;2022-12-29T07:31:51;99943.84;;;10.61;91.25
62508;BME280;48556;51.972;4.624;2022-12-29T07:34:16;99936.59;;;10.36;91.85
62508;BME280;48556;51.972;4.624;2022-12-29T07:36:42;99943.56;;;10.37;91.82
62508;BME280;48556;51.972;4.624;2022-12-29T07:39:07;99948.25;;;10.24;91.32
62508;BME280;48556;51.972;4.624;2022-12-29T07:41:33;99944.44;;;10.38;89.98
62508;BME280;48556;51.972;4.624;2022-12-29T07:43:59;99938.84;;;10.50;89.82
62508;BME280;48556;51.972;4.624;2022-12-29T07:46:25;99944.03;;;10.53;89.23
62508;BME280;48556;51.972;4.624;2022-12-29T07:48:50;99944.50;;;10.69;87.86
62508;BME280;48556;51.972;4.624;2022-12-29T07:51:16;99949.84;;;10.66;87.61
62508;BME280;48556;51.972;4.624;2022-12-29T07:53:41;99943.63;;;10.69;86.64
62508;BME280;48556;51.972;4.624;2022-12-29T07:56:07;99950.72;;;10.67;86.05
62508;BME280;48556;51.972;4.624;2022-12-29T07:58:32;99953.56;;;10.57;86.06
62508;BME280;48556;51.972;4.624;2022-12-29T08:00:58;99958.78;;;10.59;85.29
62508;BME280;48556;51.972;4.624;2022-12-29T08:03:23;99949.06;;;10.63;85.53
62508;BME280;48556;51.972;4.624;2022-12-29T08:05:51;99947.72;;;10.81;85.20
62508;BME280;48556;51.972;4.624;2022-12-29T08:08:17;99936.91;;;10.58;86.05
62508;BME280;48556;51.972;4.624;2022-12-29T08:10:43;99949.19;;;10.58;86.61
62508;BME280;48556;51.972;4.624;2022-12-29T08:13:08;99949.16;;;10.59;86.68
62508;BME280;48556;51.972;4.624;2022-12-29T08:15:34;99952.88;;;10.84;84.52
62508;BME280;48556;51.972;4.624;2022-12-29T08:18:00;99961.41;;;10.60;85.45
62508;BME280;48556;51.972;4.624;2022-12-29T08:20:25;99950.09;;;10.57;86.68
62508;BME280;48556;51.972;4.624;2022-12-29T08:22:51;99955.50;;;10.51;87.83
62508;BME280;48556;51.972;4.624;2022-12-29T08:25:16;99954.75;;;10.46;87.56
62508;BME280;48556;51.972;4.624;2022-12-29T08:27:42;99949.63;;;10.39;89.16
62508;BME280;48556;51.972;4.624;2022-12-29T08:30:08;99956.84;;;10.30;91.77
62508;BME280;48556;51.972;4.624;2022-12-29T08:32:34;99969.47;;;10.15;91.48
62508;BME280;48556;51.972;4.624;2022-12-29T08:35:00;99977.47;;;10.11;93.10
62508;BME280;48556;51.972;4.624;2022-12-29T08:37:25;99973.47;;;9.94;94.78
62508;BME280;48556;51.972;4.624;2022-12-29T08:39:51;99980.50;;;9.94;95.62
62508;BME280;48556;51.972;4.624;2022-12-29T08:42:17;99987.25;;;10.04;95.43
62508;BME280;48556;51.972;4.624;2022-12-29T08:44:42;99986.97;;;9.79;97.90
62508;BME280;48556;51.972;4.624;2022-12-29T08:47:10;100015.31;;;9.61;100.00
62508;BME280;48556;51.972;4.624;2022-12-29T08:49:36;99990.88;;;9.59;100.00
62508;BME280;48556;51.972;4.624;2022-12-29T08:52:04;99995.44;;;9.90;100.00
62508;BME280;48556;51.972;4.624;2022-12-29T08:54:29;100014.38;;;9.64;100.00
62508;BME280;48556;51.972;4.624;2022-12-29T08:56:55;100001.31;;;9.62;100.00
62508;BME280;48556;51.972;4.624;2022-12-29T08:59:20;100021.34;;;9.66;100.00
62508;BME280;48556;51.972;4.624;2022-12-29T09:01:46;100029.00;;;9.77;100.00
62508;BME280;48556;51.972;4.624;2022-12-29T09:04:12;100003.94;;;9.62;100.00
62508;BME280;48556;51.972;4.624;2022-12-29T09:06:37;100018.97;;;9.54;100.00
62508;BME280;48556;51.972;4.624;2022-12-29T09:09:03;100024.19;;;9.55;100.00
62508;BME280;48556;51.972;4.624;2022-12-29T09:11:29;100035.44;;;9.62;100.00
62508;BME280;48556;51.972;4.624;2022-12-29T09:13:54;100035.72;;;9.48;100.00
62508;BME280;48556;51.972;4.624;2022-12-29T09:16:23;100045.41;;;9.45;100.00
62508;BME280;48556;51.972;4.624;2022-12-29T09:18:49;100039.91;;;9.57;100.00
62508;BME280;48556;51.972;4.624;2022-12-29T09:21:15;100045.09;;;9.60;100.00
62508;BME280;48556;51.972;4.624;2022-12-29T09:23:40;100039.66;;;9.69;100.00
62508;BME280;48556;51.972;4.624;2022-12-29T09:26:07;100046.66;;;9.69;100.00
62508;BME280;48556;51.972;4.624;2022-12-29T09:28:33;100067.09;;;9.54;100.00
62508;BME280;48556;51.972;4.624;2022-12-29T09:31:00;100067.50;;;9.77;100.00
62508;BME280;48556;51.972;4.624;2022-12-29T09:33:26;100061.28;;;9.81;100.00
62508;BME280;48556;51.972;4.624;2022-12-29T09:35:56;100062.53;;;9.64;100.00
62508;BME280;48556;51.972;4.624;2022-12-29T09:38:42;100070.09;;;9.78;100.00
62508;BME280;48556;51.972;4.624;2022-12-29T09:41:26;100094.13;;;10.00;100.00
62508;BME280;48556;51.972;4.624;2022-12-29T09:44:23;100088.78;;;10.05;100.00
62508;BME280;48556;51.972;4.624;2022-12-29T09:46:51;100089.78;;;9.99;100.00
62508;BME280;48556;51.972;4.624;2022-12-29T09:49:40;100092.91;;;10.17;100.00
62508;BME280;48556;51.972;4.624;2022-12-29T09:52:31;100103.56;;;10.11;100.00
62508;BME280;48556;51.972;4.624;2022-12-29T09:57:38;100116.97;;;10.39;100.00
62508;BME280;48556;51.972;4.624;2022-12-29T10:00:13;100131.28;;;10.24;100.00
62508;BME280;48556;51.972;4.624;2022-12-29T10:02:48;100129.03;;;10.48;100.00
62508;BME280;48556;51.972;4.624;2022-12-29T10:16:02;100156.97;;;10.52;100.00
62508;BME280;48556;51.972;4.624;2022-12-29T10:24:10;100175.19;;;10.61;100.00
62508;BME280;48556;51.972;4.624;2022-12-29T10:26:40;100170.38;;;10.78;100.00
62508;BME280;48556;51.972;4.624;2022-12-29T10:32:06;100193.03;;;10.86;99.75
62508;BME280;48556;51.972;4.624;2022-12-29T10:34:45;100203.56;;;10.86;99.22
62508;BME280;48556;51.972;4.624;2022-12-29T10:39:52;100202.75;;;10.82;99.35
62508;BME280;48556;51.972;4.624;2022-12-29T10:42:43;100208.56;;;10.95;99.41
62508;BME280;48556;51.972;4.624;2022-12-29T10:45:14;100211.38;;;11.25;96.98
62508;BME280;48556;51.972;4.624;2022-12-29T10:48:03;100209.00;;;11.14;95.01
62508;BME280;48556;51.972;4.624;2022-12-29T10:50:30;100219.88;;;11.36;93.81
62508;BME280;48556;51.972;4.624;2022-12-29T10:53:00;100211.66;;;11.14;94.35
62508;BME280;48556;51.972;4.624;2022-12-29T10:55:36;100208.94;;;11.17;93.74
62508;BME280;48556;51.972;4.624;2022-12-29T10:58:11;100222.28;;;11.09;94.28
62508;BME280;48556;51.972;4.624;2022-12-29T11:00:38;100234.41;;;11.17;94.38
62508;BME280;48556;51.972;4.624;2022-12-29T11:08:35;100237.66;;;11.26;93.44
62508;BME280;48556;51.972;4.624;2022-12-29T11:11:06;100251.97;;;11.15;94.16
62508;BME280;48556;51.972;4.624;2022-12-29T11:16:37;100255.84;;;11.37;93.13
62508;BME280;48556;51.972;4.624;2022-12-29T11:19:02;100263.94;;;11.28;93.55
62508;BME280;48556;51.972;4.624;2022-12-29T11:21:33;100254.22;;;11.32;93.24
62508;BME280;48556;51.972;4.624;2022-12-29T11:24:02;100260.91;;;11.45;92.31
62508;BME280;48556;51.972;4.624;2022-12-29T11:26:30;100269.22;;;11.28;92.68
62508;BME280;48556;51.972;4.624;2022-12-29T11:29:23;100264.84;;;11.63;92.63
62508;BME280;48556;51.972;4.624;2022-12-29T11:31:52;100271.25;;;11.53;92.11
62508;BME280;48556;51.972;4.624;2022-12-29T11:36:49;100274.38;;;11.67;91.20
62508;BME280;48556;51.972;4.624;2022-12-29T11:39:27;100280.72;;;11.60;90.37
62508;BME280;48556;51.972;4.624;2022-12-29T11:41:54;100270.78;;;11.71;89.47
62508;BME280;48556;51.972;4.624;2022-12-29T11:44:20;100283.25;;;11.99;88.29
62508;BME280;48556;51.972;4.624;2022-12-29T11:46:49;100286.66;;;11.68;88.27
62508;BME280;48556;51.972;4.624;2022-12-29T11:49:24;100275.75;;;11.48;89.51
62508;BME280;48556;51.972;4.624;2022-12-29T11:51:53;100279.28;;;11.46;90.22
62508;BME280;48556;51.972;4.624;2022-12-29T11:54:26;100287.78;;;11.58;89.25
62508;BME280;48556;51.972;4.624;2022-12-29T11:56:54;100291.28;;;11.58;89.08
62508;BME280;48556;51.972;4.624;2022-12-29T12:05:24;100300.88;;;11.61;87.45
62508;BME280;48556;51.972;4.624;2022-12-29T12:11:18;100282.97;;;11.39;87.69
62508;BME280;48556;51.972;4.624;2022-12-29T12:14:11;100282.50;;;11.58;86.76
62508;BME280;48556;51.972;4.624;2022-12-29T12:16:43;100296.91;;;11.44;86.18
62508;BME280;48556;51.972;4.624;2022-12-29T12:19:17;100306.53;;;11.44;84.86
62508;BME280;48556;51.972;4.624;2022-12-29T12:21:52;100287.72;;;11.25;85.10
62508;BME280;48556;51.972;4.624;2022-12-29T12:32:28;100313.50;;;11.83;83.17
62508;BME280;48556;51.972;4.624;2022-12-29T12:35:01;100312.63;;;12.17;82.35
62508;BME280;48556;51.972;4.624;2022-12-29T12:38:02;100320.53;;;12.17;81.67
62508;BME280;48556;51.972;4.624;2022-12-29T13:00:20;100354.19;;;11.69;83.59
62508;BME280;48556;51.972;4.624;2022-12-29T13:08:35;100347.16;;;11.71;83.70
62508;BME280;48556;51.972;4.624;2022-12-29T13:11:39;100356.41;;;11.88;83.82
62508;BME280;48556;51.972;4.624;2022-12-29T13:16:40;100344.56;;;11.70;84.90
62508;BME280;48556;51.972;4.624;2022-12-29T13:22:07;100342.88;;;12.03;84.26
62508;BME280;48556;51.972;4.624;2022-12-29T13:27:54;100339.09;;;12.13;84.25
62508;BME280;48556;51.972;4.624;2022-12-29T13:33:27;100352.19;;;11.80;89.96
62508;BME280;48556;51.972;4.624;2022-12-29T13:38:51;100364.97;;;10.78;92.12
62508;BME280;48556;51.972;4.624;2022-12-29T13:41:38;100368.69;;;10.68;92.94
62508;BME280;48556;51.972;4.624;2022-12-29T13:44:17;100375.34;;;10.42;94.20
62508;BME280;48556;51.972;4.624;2022-12-29T13:46:46;100372.59;;;10.49;95.18
62508;BME280;48556;51.972;4.624;2022-12-29T13:49:22;100370.69;;;10.57;94.88
62508;BME280;48556;51.972;4.624;2022-12-29T13:52:29;100369.66;;;10.64;94.54
62508;BME280;48556;51.972;4.624;2022-12-29T13:58:13;100370.44;;;10.69;93.67
62508;BME280;48556;51.972;4.624;2022-12-29T14:03:44;100364.50;;;10.59;92.92
62508;BME280;48556;51.972;4.624;2022-12-29T14:06:15;100355.88;;;10.95;91.07
62508;BME280;48556;51.972;4.624;2022-12-29T14:08:45;100363.34;;;10.73;91.49
62508;BME280;48556;51.972;4.624;2022-12-29T14:11:14;100365.91;;;10.77;92.22
62508;BME280;48556;51.972;4.624;2022-12-29T14:13:46;100367.75;;;10.72;92.17
62508;BME280;48556;51.972;4.624;2022-12-29T14:16:29;100363.56;;;10.62;93.59
62508;BME280;48556;51.972;4.624;2022-12-29T14:19:10;100364.00;;;10.84;93.22
62508;BME280;48556;51.972;4.624;2022-12-29T14:21:37;100370.91;;;10.90;93.07
62508;BME280;48556;51.972;4.624;2022-12-29T14:29:50;100382.63;;;10.73;94.24
62508;BME280;48556;51.972;4.624;2022-12-29T14:40:23;100374.72;;;10.75;93.83
62508;BME280;48556;51.972;4.624;2022-12-29T14:42:53;100375.69;;;10.69;93.55
62508;BME280;48556;51.972;4.624;2022-12-29T14:47:48;100385.97;;;10.82;94.12
62508;BME280;48556;51.972;4.624;2022-12-29T14:50:15;100372.28;;;11.06;92.43
62508;BME280;48556;51.972;4.624;2022-12-29T14:57:44;100376.13;;;10.91;92.93
62508;BME280;48556;51.972;4.624;2022-12-29T15:00:23;100389.50;;;10.81;92.70
62508;BME280;48556;51.972;4.624;2022-12-29T15:08:00;100396.94;;;11.04;91.48
62508;BME280;48556;51.972;4.624;2022-12-29T15:10:37;100387.44;;;10.95;91.16
62508;BME280;48556;51.972;4.624;2022-12-29T15:13:15;100401.06;;;10.72;91.31
62508;BME280;48556;51.972;4.624;2022-12-29T15:15:41;100395.72;;;10.76;91.02
62508;BME280;48556;51.972;4.624;2022-12-29T15:18:26;100410.09;;;10.58;91.98
62508;BME280;48556;51.972;4.624;2022-12-29T15:20:59;100405.69;;;10.59;91.82
62508;BME280;48556;51.972;4.624;2022-12-29T15:23:27;100407.59;;;10.51;91.88
62508;BME280;48556;51.972;4.624;2022-12-29T15:25:59;100402.94;;;10.65;91.40
62508;BME280;48556;51.972;4.624;2022-12-29T15:28:38;100411.09;;;10.97;89.78
62508;BME280;48556;51.972;4.624;2022-12-29T15:31:17;100405.34;;;10.77;89.37
62508;BME280;48556;51.972;4.624;2022-12-29T15:33:46;100419.59;;;10.64;89.40
62508;BME280;48556;51.972;4.624;2022-12-29T15:36:26;100415.06;;;10.72;89.99
62508;BME280;48556;51.972;4.624;2022-12-29T15:38:54;100420.22;;;10.77;89.44
62508;BME280;48556;51.972;4.624;2022-12-29T15:41:49;100426.13;;;10.43;90.08
62508;BME280;48556;51.972;4.624;2022-12-29T15:44:38;100425.03;;;10.56;90.23
62508;BME280;48556;51.972;4.624;2022-12-29T15:47:20;100430.56;;;10.39;89.80
62508;BME280;48556;51.972;4.624;2022-12-29T15:49:52;100432.72;;;10.66;89.13